Aérodrome :
LOGIN :

S'inscrire | Disclaimer

   EN    FR    IT 

 










Légende :    VFR   VFR Marginal   IFR   IFR Intensif   IFR Très Intensif
Visi : 
Plafond : 
>= 8 km
>= 3000ft
5 à 8 km
1000 à 3000 ft
1500m à 5 km
500 à 1000 ft
800 à 1500m
200 à 500 ft
< 800m
< 200 ft
Symboles :   Orages  Brouillard  Fortes neiges  Fortes précipitations  Vent > 20 kt
SIGMETs :   Divers  Orages  Givrage  Turbulence  Onde Orograph.  Cendres Volcan.







- Altitude de l'aérodrome : 364 ft
- Voir les cartes d'approche


LFAQ - Albert Bray

DERNIER METAR :
  • 211130Z AUTO 29016KT 9999 BKN040 BKN220 16/08 Q1013 TEMPO 27025G40KT 3000 SHRA BKN025CB

METARs EXPIRÉS :
  • 211100Z AUTO 29021KT 9999 SCT034 BKN230 16/08 Q1012 TEMPO 27025G35KT 3000 SHRA BKN025CB
  • 211030Z AUTO 28023KT 9999 SCT035 BKN043 16/09 Q1012 TEMPO 27025G35KT 3000 SHRA BKN025CB
  • 211000Z AUTO 29020KT 9999 FEW033 15/09 Q1011 TEMPO 27025G35KT 3000 SHRA BKN025CB
  • 210930Z AUTO 29020KT 9999 BKN030 BKN038 BKN052 16/10 Q1011 TEMPO 27025G35KT 3000 SHRA BKN025CB
  • 210900Z AUTO 28019KT 9999 BKN026 BKN040 BKN046 15/10 Q1010 TEMPO 27025G35KT 3000 SHRA BKN025CB

TAF TAF LFAQ
Valide du 21 à 12h jusqu'au 21 à 21h UTC


211100Z 2112/2121 27015G25KT 9999 BKN025
TEMPO 2112/2116 27025G40KT 3000 SHRA BKN025CB
BECMG 2117/2120 25007KT
Pas de NOTAMs connus pour ce terrain.



MET'MAP, la Météo Aéronautique d'un coup d'oeil ! - Copyright ORBIFLY Décembre 2007 - Disclaimer

ORBIFLY MET'MAP TEAM :

Programmation & Développement : Alexandra Zaïnal
Conception & Développement : Baudouin d'Aumeries
Co-Programmation & Développement : Marc-Olivier Méhu
Soutien technique & logistique : Manuel Goepfert

Contact : metmap@orbifly.com




SOURCES & CREDITS :

   NOAA